createdAt,value
2023-04-21T00:01:59.464Z,24.10
2023-04-21T00:04:29.284Z,22.60
2023-04-21T00:06:57.664Z,25.70
2023-04-21T00:09:26.037Z,19.70
2023-04-21T00:11:54.533Z,27.10
2023-04-21T00:14:22.798Z,21.10
2023-04-21T00:16:53.028Z,18.40
2023-04-21T00:19:21.425Z,22.30
2023-04-21T00:21:49.979Z,26.70
2023-04-21T00:24:18.562Z,20.40
2023-04-21T00:26:46.836Z,23.00
2023-04-21T00:29:15.319Z,17.20
2023-04-21T00:31:43.732Z,13.20
2023-04-21T00:34:12.076Z,20.70
2023-04-21T00:36:40.660Z,20.40
2023-04-21T00:39:09.243Z,23.70
2023-04-21T00:41:38.754Z,17.00
2023-04-21T00:44:10.652Z,16.20
2023-04-21T00:46:38.952Z,14.80
2023-04-21T00:49:08.035Z,11.00
2023-04-21T00:51:36.973Z,24.00
2023-04-21T00:54:06.235Z,15.40
2023-04-21T00:56:35.580Z,11.90
2023-04-21T00:59:04.349Z,21.30
2023-04-21T01:01:34.472Z,12.30
2023-04-21T01:04:04.224Z,20.20
2023-04-21T01:06:33.280Z,16.60
2023-04-21T01:09:01.603Z,23.80
2023-04-21T01:11:30.133Z,14.10
2023-04-21T01:13:58.409Z,15.30
2023-04-21T01:16:27.057Z,14.10
2023-04-21T01:18:55.583Z,15.40
2023-04-21T01:21:24.062Z,13.40
2023-04-21T01:23:52.329Z,12.60
2023-04-21T01:26:21.842Z,12.50
2023-04-21T01:28:50.219Z,10.80
2023-04-21T01:31:18.701Z,15.60
2023-04-21T02:19:24.553Z,17.80
2023-04-21T02:21:53.123Z,29.60
2023-04-21T02:24:23.247Z,18.20
2023-04-21T02:26:51.728Z,16.30
2023-04-21T02:29:20.089Z,24.20
2023-04-21T02:32:00.853Z,19.20
2023-04-21T02:34:32.530Z,19.90
2023-04-21T02:37:00.801Z,17.50
2023-04-21T02:39:29.596Z,29.80
2023-04-21T02:41:58.697Z,22.80
2023-04-21T02:44:29.418Z,24.40
2023-04-21T02:46:58.577Z,18.00
2023-04-21T02:49:26.896Z,21.20
2023-04-21T02:51:55.882Z,14.90
2023-04-21T02:54:24.262Z,24.30
2023-04-21T02:56:53.059Z,16.80
2023-04-21T02:59:22.088Z,15.90
2023-04-21T03:01:50.829Z,16.90
2023-04-21T03:04:20.011Z,29.70
2023-04-21T03:06:48.513Z,21.50
2023-04-21T03:09:16.861Z,23.30
2023-04-21T03:11:45.363Z,19.90
2023-04-21T03:14:13.750Z,20.00
2023-04-21T03:16:42.067Z,19.30
2023-04-21T03:19:10.599Z,23.40
2023-04-21T03:21:39.300Z,21.70
2023-04-21T03:24:08.602Z,14.60
2023-04-21T03:26:40.087Z,24.50
2023-04-21T03:29:08.417Z,19.10
2023-04-21T03:31:36.809Z,27.30
2023-04-21T03:34:05.177Z,22.10
2023-04-21T03:36:35.206Z,24.80
2023-04-21T03:39:18.827Z,21.70
2023-04-21T03:41:48.464Z,16.60
2023-04-21T03:46:54.507Z,20.80
2023-04-21T03:49:24.419Z,33.20
2023-04-21T03:51:52.694Z,22.50
2023-04-21T03:54:21.383Z,20.60
2023-04-21T03:56:49.763Z,29.20
2023-04-21T03:59:18.520Z,24.60
2023-04-21T04:01:47.030Z,25.90
2023-04-21T04:04:15.605Z,22.10
2023-04-21T04:06:44.510Z,24.90
2023-04-21T04:09:12.984Z,17.50
2023-04-21T04:11:41.273Z,23.10
2023-04-21T04:14:09.541Z,20.80
2023-04-21T04:16:37.911Z,26.30
2023-04-21T04:19:06.295Z,24.50
2023-04-21T04:21:34.778Z,26.30
2023-04-21T04:24:03.469Z,19.10
2023-04-21T04:26:34.189Z,22.70
2023-04-21T04:29:02.563Z,23.80
2023-04-21T04:31:30.863Z,18.20
2023-04-21T05:19:27.485Z,23.90
2023-04-21T05:22:01.381Z,20.60
2023-04-21T05:24:29.961Z,21.20
2023-04-21T05:26:58.150Z,17.20
2023-04-21T05:29:26.616Z,26.30
2023-04-21T05:31:55.221Z,23.80
2023-04-21T05:34:23.883Z,22.50
2023-04-21T05:36:52.569Z,25.20
2023-04-21T05:39:20.850Z,14.80
2023-04-21T05:41:49.222Z,28.40
2023-04-21T05:44:18.268Z,25.80
2023-04-21T05:46:46.816Z,19.60
2023-04-21T05:49:15.179Z,20.10
2023-04-21T05:51:43.554Z,23.10
2023-04-21T05:54:11.928Z,26.60
2023-04-21T05:56:40.314Z,22.30
2023-04-21T05:59:08.792Z,23.60
2023-04-21T06:01:37.679Z,33.60
2023-04-21T06:04:06.285Z,23.10
2023-04-21T06:06:35.116Z,18.30
2023-04-21T06:09:03.549Z,15.80
2023-04-21T06:11:33.543Z,16.60
2023-04-21T06:14:02.021Z,22.40
2023-04-21T06:16:34.277Z,18.00
2023-04-21T06:19:02.681Z,27.40
2023-04-21T06:21:32.910Z,18.80
2023-04-21T06:24:01.167Z,14.30
2023-04-21T06:26:30.509Z,15.40
2023-04-21T06:28:58.750Z,19.20
2023-04-21T06:31:27.338Z,24.70
2023-04-21T06:33:55.816Z,25.10
2023-04-21T06:36:23.990Z,17.30
2023-04-21T06:38:52.258Z,18.30
2023-04-21T06:41:21.372Z,11.50
2023-04-21T06:43:51.055Z,15.90
2023-04-21T06:46:19.492Z,21.00
2023-04-21T06:48:47.941Z,20.50
2023-04-21T06:51:16.408Z,15.40
2023-04-21T06:53:44.776Z,15.20
2023-04-21T06:56:13.271Z,10.90
2023-04-21T06:58:41.536Z,11.10
2023-04-21T07:01:09.988Z,14.30
2023-04-21T07:03:38.429Z,13.90
2023-04-21T07:06:07.408Z,9.80
2023-04-21T07:08:36.083Z,11.90
2023-04-21T07:11:04.554Z,13.30
2023-04-21T07:13:33.051Z,14.40
2023-04-21T07:16:01.533Z,13.10
2023-04-21T07:18:30.106Z,11.30
2023-04-21T07:20:58.377Z,17.90
2023-04-21T07:23:26.855Z,10.20
2023-04-21T07:25:59.745Z,10.60
2023-04-21T07:28:28.325Z,13.40
2023-04-21T07:30:57.061Z,13.50
2023-04-21T07:33:25.488Z,16.70
2023-04-21T07:35:53.754Z,12.30
2023-04-21T07:38:22.145Z,6.70
2023-04-21T07:40:50.834Z,12.60
2023-04-21T07:43:20.128Z,10.20
2023-04-21T07:45:48.514Z,10.00
2023-04-21T07:48:16.799Z,11.60
2023-04-21T07:50:45.264Z,11.30
2023-04-21T07:53:13.439Z,15.70
2023-04-21T07:55:41.814Z,14.30
2023-04-21T07:58:10.703Z,11.80
2023-04-21T08:00:39.284Z,11.80
2023-04-21T08:03:08.226Z,10.50
2023-04-21T08:05:40.198Z,10.30
2023-04-21T08:08:09.749Z,13.90
2023-04-21T08:10:38.224Z,6.60
2023-04-21T08:13:06.901Z,14.30
2023-04-21T08:15:35.309Z,11.60
2023-04-21T08:18:23.738Z,11.10
2023-04-21T08:20:57.747Z,11.30
2023-04-21T08:23:26.163Z,14.70
2023-04-21T08:25:54.806Z,7.70
2023-04-21T08:28:23.194Z,8.80
2023-04-21T08:30:51.518Z,9.80
2023-04-21T08:33:19.962Z,6.90
2023-04-21T08:36:02.482Z,11.90
2023-04-21T08:38:35.618Z,9.70
2023-04-21T08:41:04.709Z,6.60
2023-04-21T08:43:34.445Z,9.10
2023-04-21T08:46:03.803Z,11.00
2023-04-21T08:48:32.431Z,9.30
2023-04-21T08:51:01.216Z,8.60
2023-04-21T08:53:29.600Z,11.20
2023-04-21T08:56:10.142Z,6.40
2023-04-21T08:58:41.728Z,6.60
2023-04-21T09:01:11.253Z,6.40
2023-04-21T09:04:17.022Z,3.80
2023-04-21T09:06:46.528Z,5.70
2023-04-21T09:09:14.970Z,3.50
2023-04-21T09:11:43.642Z,3.50
2023-04-21T09:14:11.917Z,6.50
2023-04-21T09:16:40.557Z,2.00
2023-04-21T09:19:16.466Z,2.40
2023-04-21T09:21:45.041Z,11.70
2023-04-21T09:24:13.417Z,4.10
2023-04-21T09:26:42.539Z,5.70
2023-04-21T09:29:10.791Z,7.20
2023-04-21T09:31:39.298Z,2.60
2023-04-21T10:19:40.060Z,7.50
2023-04-21T10:22:10.324Z,10.30
2023-04-21T10:24:40.462Z,10.20
2023-04-21T10:27:12.772Z,14.50
2023-04-21T10:29:55.704Z,10.00
2023-04-21T10:32:45.615Z,5.90
2023-04-21T10:35:23.718Z,6.60
2023-04-21T10:37:52.323Z,11.20
2023-04-21T10:40:43.130Z,8.00
2023-04-21T10:43:57.998Z,8.30
2023-04-21T10:46:36.478Z,8.60
2023-04-21T10:49:27.600Z,12.50
2023-04-21T10:52:05.537Z,8.00
2023-04-21T10:54:46.885Z,10.80
2023-04-21T10:57:19.608Z,9.50
2023-04-21T10:59:49.761Z,4.70
2023-04-21T11:02:19.069Z,5.00
2023-04-21T11:04:55.208Z,7.50
2023-04-21T11:07:24.249Z,6.60
2023-04-21T11:10:04.796Z,5.30
2023-04-21T11:12:35.122Z,5.90
2023-04-21T11:15:07.663Z,2.70
2023-04-21T11:17:39.476Z,2.70
2023-04-21T11:20:08.988Z,3.60
2023-04-21T11:22:39.046Z,1.90
2023-04-21T11:25:17.292Z,2.70
2023-04-21T11:27:56.830Z,2.30
2023-04-21T11:30:34.921Z,6.00
2023-04-21T11:33:04.372Z,5.20
2023-04-21T11:35:32.752Z,3.10
2023-04-21T11:38:05.993Z,2.00
2023-04-21T11:40:50.055Z,2.50
2023-04-21T11:43:18.583Z,7.90
2023-04-21T11:45:51.208Z,10.40
2023-04-21T11:48:21.749Z,5.60
2023-04-21T11:50:50.833Z,5.40
2023-04-21T11:53:19.704Z,4.90
2023-04-21T11:55:48.614Z,8.90
2023-04-21T11:58:18.164Z,9.80
2023-04-21T12:00:46.698Z,9.90
2023-04-21T12:03:16.419Z,8.40
2023-04-21T12:05:44.940Z,18.10
2023-04-21T12:08:15.168Z,7.80
2023-04-21T12:10:47.261Z,14.40
2023-04-21T12:13:25.181Z,14.90
2023-04-21T12:15:53.574Z,14.00
2023-04-21T12:18:22.364Z,10.30
2023-04-21T12:20:51.958Z,11.80
2023-04-21T12:23:20.126Z,19.90
2023-04-21T12:25:49.010Z,11.90
2023-04-21T12:28:18.447Z,8.70
2023-04-21T12:30:46.704Z,6.00
2023-04-21T12:33:15.390Z,11.80
2023-04-21T12:35:43.859Z,9.10
2023-04-21T12:38:12.246Z,13.30
2023-04-21T12:40:40.615Z,8.30
2023-04-21T12:43:09.001Z,13.60
2023-04-21T12:45:37.403Z,14.40
2023-04-21T12:48:06.795Z,16.50
2023-04-21T12:50:35.058Z,16.20
2023-04-21T12:53:03.533Z,8.70
2023-04-21T12:55:31.907Z,16.00
2023-04-21T12:58:00.696Z,9.30
2023-04-21T13:00:29.280Z,13.90
2023-04-21T13:02:57.793Z,17.00
2023-04-21T13:05:26.551Z,20.70
2023-04-21T13:07:55.437Z,17.80
2023-04-21T13:10:25.359Z,13.60
2023-04-21T13:12:53.630Z,20.20
2023-04-21T13:15:22.107Z,11.00
2023-04-21T13:17:50.391Z,17.10
2023-04-21T13:20:19.469Z,9.20
2023-04-21T13:22:48.162Z,10.20
2023-04-21T13:25:16.548Z,18.10
2023-04-21T13:27:46.966Z,13.20
2023-04-21T14:19:36.011Z,18.40
2023-04-21T14:22:04.990Z,11.50
2023-04-21T14:24:34.140Z,15.60
2023-04-21T14:27:02.527Z,13.30
2023-04-21T14:29:31.389Z,23.30
2023-04-21T14:32:00.380Z,21.80
2023-04-21T14:34:29.114Z,14.20
2023-04-21T14:36:57.417Z,15.80
2023-04-21T14:39:25.930Z,9.60
2023-04-21T14:41:54.725Z,17.20
2023-04-21T14:44:22.875Z,15.20
2023-04-21T14:47:05.763Z,19.00
2023-04-21T14:49:39.972Z,16.60
2023-04-21T14:52:08.695Z,18.80
2023-04-21T14:54:37.761Z,14.00
2023-04-21T14:57:19.863Z,18.20
2023-04-21T14:59:51.934Z,22.20
2023-04-21T15:02:21.354Z,11.80
2023-04-21T15:04:50.970Z,16.50
2023-04-21T15:07:24.495Z,14.60
2023-04-21T15:09:55.614Z,23.70
2023-04-21T15:12:24.723Z,17.80
2023-04-21T15:14:53.961Z,19.10
2023-04-21T15:17:22.442Z,12.50
2023-04-21T15:19:51.289Z,29.30
2023-04-21T15:22:20.086Z,16.30
2023-04-21T15:24:48.870Z,17.50
2023-04-21T15:27:17.781Z,22.40
2023-04-21T15:29:46.451Z,15.10
2023-04-21T15:32:15.047Z,11.30
2023-04-21T15:34:43.198Z,13.80
2023-04-21T15:37:11.805Z,7.30
2023-04-21T15:39:41.593Z,13.40
2023-04-21T15:42:09.895Z,16.60
2023-04-21T15:44:39.791Z,13.10
2023-04-21T15:47:08.349Z,11.20
2023-04-21T15:49:37.318Z,13.40
2023-04-21T15:52:07.175Z,13.30
2023-04-21T15:54:35.869Z,16.10
2023-04-21T15:57:05.570Z,13.40
2023-04-21T15:59:34.513Z,17.00
2023-04-21T16:02:03.636Z,19.20
2023-04-21T16:05:19.965Z,13.20
2023-04-21T16:07:48.444Z,16.30
2023-04-21T16:10:17.906Z,9.90
2023-04-21T16:12:50.967Z,19.90
2023-04-21T16:15:24.313Z,14.20
2023-04-21T16:17:53.655Z,16.10
2023-04-21T16:20:22.202Z,14.70
2023-04-21T16:22:51.021Z,14.10
2023-04-21T16:25:20.284Z,13.10
2023-04-21T16:27:48.769Z,26.40
2023-04-21T16:30:17.085Z,20.50
2023-04-21T16:32:45.575Z,12.40
2023-04-21T16:35:13.992Z,16.30
2023-04-21T16:37:44.450Z,17.10
2023-04-21T16:40:12.858Z,24.30
2023-04-21T16:42:41.420Z,13.50
2023-04-21T16:45:10.608Z,14.10
2023-04-21T16:47:42.055Z,13.90
2023-04-21T16:50:11.477Z,15.80
2023-04-21T16:52:40.254Z,12.00
2023-04-21T16:55:09.337Z,9.80
2023-04-21T16:57:37.809Z,14.20
2023-04-21T17:00:07.319Z,11.90
2023-04-21T17:02:35.975Z,14.70
2023-04-21T17:05:05.300Z,16.40
2023-04-21T17:07:34.507Z,15.40
2023-04-21T17:10:03.001Z,13.90
2023-04-21T17:12:31.764Z,11.40
2023-04-21T17:15:00.255Z,15.70
2023-04-21T17:17:32.005Z,31.30
2023-04-21T17:20:01.091Z,17.50
2023-04-21T17:22:29.675Z,16.60
2023-04-21T17:24:58.128Z,14.20
2023-04-21T17:27:27.348Z,14.00
2023-04-21T17:29:55.829Z,18.70
2023-04-21T17:32:24.793Z,18.30
2023-04-21T17:34:53.506Z,11.60
2023-04-21T17:37:22.300Z,20.10
2023-04-21T17:39:50.879Z,16.10
2023-04-21T17:42:21.413Z,18.80
2023-04-21T17:44:51.526Z,18.30
2023-04-21T17:47:20.314Z,21.80
2023-04-21T17:49:48.692Z,21.50
2023-04-21T17:52:17.239Z,23.90
2023-04-21T17:54:46.326Z,16.20
2023-04-21T17:57:14.952Z,26.40
2023-04-21T17:59:43.349Z,28.90
2023-04-21T18:02:12.819Z,72.80
2023-04-21T18:04:41.857Z,53.60
2023-04-21T18:07:10.924Z,68.40
2023-04-21T18:09:39.407Z,39.10
2023-04-21T18:12:07.893Z,31.90
2023-04-21T18:14:36.711Z,35.80
2023-04-21T18:17:06.177Z,27.20
2023-04-21T18:19:34.865Z,27.00
2023-04-21T18:22:03.560Z,24.60
2023-04-21T18:24:32.134Z,18.40
2023-04-21T18:27:00.924Z,36.20
2023-04-21T18:29:29.294Z,32.90
2023-04-21T18:31:57.719Z,15.10
2023-04-21T18:34:26.257Z,19.50
2023-04-21T18:36:54.539Z,22.40
2023-04-21T18:39:22.859Z,18.10
2023-04-21T18:41:51.758Z,31.10
2023-04-21T18:44:20.226Z,39.60
2023-04-21T18:46:48.998Z,35.50
2023-04-21T18:49:17.126Z,25.80
2023-04-21T18:51:45.312Z,19.90
2023-04-21T18:54:13.653Z,23.40
2023-04-21T18:56:41.748Z,27.30
2023-04-21T18:59:09.934Z,21.60
2023-04-21T19:01:39.075Z,16.10
2023-04-21T19:04:09.976Z,15.60
2023-04-21T19:06:38.744Z,26.10
2023-04-21T19:09:06.963Z,18.70
2023-04-21T19:11:36.167Z,16.20
2023-04-21T19:14:04.446Z,17.20
2023-04-21T19:19:21.650Z,18.90
2023-04-21T19:21:50.528Z,9.60
2023-04-21T19:24:18.913Z,10.40
2023-04-21T19:26:47.389Z,16.90
2023-04-21T19:29:15.566Z,13.50
2023-04-21T19:31:44.194Z,16.30
2023-04-21T19:34:12.730Z,14.00
2023-04-21T19:36:42.135Z,26.40
2023-04-21T19:39:10.518Z,13.90
2023-04-21T19:41:39.093Z,11.40
2023-04-21T19:44:07.467Z,11.70
2023-04-21T19:46:36.040Z,12.30
2023-04-21T19:49:04.334Z,17.20
2023-04-21T19:51:33.118Z,11.20
2023-04-21T19:54:10.564Z,6.60
2023-04-21T19:56:40.315Z,7.40
2023-04-21T19:59:08.492Z,11.60
2023-04-21T20:01:37.322Z,8.30
2023-04-21T20:04:06.925Z,8.30
2023-04-21T20:06:35.784Z,9.10
2023-04-21T20:09:07.222Z,27.00
2023-04-21T20:11:37.346Z,21.00
2023-04-21T20:14:05.830Z,20.20
2023-04-21T20:16:34.589Z,15.30
2023-04-21T20:19:03.093Z,15.20
2023-04-21T20:21:32.602Z,25.20
2023-04-21T20:24:01.187Z,20.00
2023-04-21T20:26:29.568Z,14.90
2023-04-21T20:28:57.937Z,17.70
2023-04-21T20:31:26.331Z,20.90
2023-04-21T20:33:54.800Z,11.00
2023-04-21T20:36:23.070Z,10.50
2023-04-21T20:38:51.466Z,7.90
2023-04-21T20:41:23.485Z,12.40
2023-04-21T20:43:52.405Z,11.60
2023-04-21T20:46:20.729Z,7.90
2023-04-21T20:48:49.876Z,9.10
2023-04-21T20:51:18.049Z,13.90
2023-04-21T20:53:46.328Z,7.60
2023-04-21T20:56:14.602Z,8.10
2023-04-21T20:58:42.990Z,7.20
2023-04-21T21:01:11.380Z,20.90
2023-04-21T21:03:39.817Z,12.20
2023-04-21T21:06:08.622Z,11.70
2023-04-21T21:08:37.312Z,9.70
2023-04-21T21:11:06.549Z,8.20
2023-04-21T21:13:35.970Z,10.50
2023-04-21T21:16:04.846Z,9.70
2023-04-21T21:18:34.812Z,16.50
2023-04-21T21:21:03.089Z,11.60
2023-04-21T21:23:33.005Z,6.60
2023-04-21T21:26:01.602Z,4.90
2023-04-21T21:28:30.574Z,7.80
2023-04-21T21:30:58.753Z,8.00
2023-04-21T21:33:27.042Z,4.30
2023-04-21T21:35:55.411Z,9.40
2023-04-21T21:38:24.200Z,11.80
2023-04-21T21:40:52.569Z,3.90
2023-04-21T21:43:20.960Z,10.70
2023-04-21T21:45:49.243Z,7.60
2023-04-21T21:48:17.837Z,7.00
2023-04-21T21:50:46.212Z,9.50
2023-04-21T21:53:14.462Z,5.30
2023-04-21T21:55:43.047Z,5.50
2023-04-21T21:58:11.328Z,10.90
2023-04-21T22:00:40.212Z,11.30
2023-04-21T22:03:08.765Z,6.60
2023-04-21T22:05:37.893Z,12.30
2023-04-21T22:08:06.779Z,7.10
2023-04-21T22:10:35.169Z,20.10
2023-04-21T22:13:03.639Z,11.30
2023-04-21T22:15:32.063Z,18.00
2023-04-21T22:18:00.647Z,20.80
2023-04-21T22:20:29.623Z,27.90
2023-04-21T22:22:58.072Z,18.00
2023-04-21T22:25:29.031Z,9.80
2023-04-21T22:27:57.304Z,7.40
2023-04-21T22:30:26.238Z,5.10
2023-04-21T22:32:54.468Z,11.60
2023-04-21T22:35:22.838Z,8.40
2023-04-21T22:37:51.516Z,13.80
2023-04-21T22:40:20.506Z,5.00
2023-04-21T22:42:48.681Z,10.40
2023-04-21T22:45:17.126Z,5.40
2023-04-21T22:47:45.795Z,7.80
2023-04-21T22:50:16.064Z,4.80
2023-04-21T22:52:44.440Z,13.80
2023-04-21T22:55:12.952Z,7.80
2023-04-21T22:57:42.225Z,8.30
2023-04-21T23:00:11.223Z,14.20
2023-04-21T23:02:39.731Z,2.90
2023-04-21T23:05:09.533Z,9.00
2023-04-21T23:07:38.273Z,5.60
2023-04-21T23:10:07.805Z,10.40
2023-04-21T23:12:36.696Z,9.40
2023-04-21T23:15:06.111Z,6.90
2023-04-21T23:17:35.033Z,9.80
2023-04-21T23:20:05.425Z,7.70
2023-04-21T23:22:35.439Z,6.10
2023-04-21T23:25:04.326Z,12.20
2023-04-21T23:27:32.595Z,7.90
2023-04-21T23:30:00.968Z,7.50
2023-04-21T23:32:30.703Z,8.00
2023-04-21T23:34:58.960Z,6.10
2023-04-21T23:37:27.538Z,7.50
2023-04-21T23:39:56.120Z,7.80
2023-04-21T23:42:24.502Z,6.60
2023-04-21T23:44:52.780Z,7.00
2023-04-21T23:47:21.493Z,10.60
2023-04-21T23:49:49.733Z,12.60
2023-04-21T23:52:18.116Z,13.20
2023-04-21T23:54:46.597Z,10.00
2023-04-21T23:57:14.769Z,5.10
2023-04-21T23:59:43.145Z,18.30
